sensor_id;sensor_type;location;lat;lon;timestamp;P1;durP1;ratioP1;P2;durP2;ratioP2
71836;SDS011;59686;51.716;7.016;2023-05-31T00:01:10;3.45;;;2.13;;
71836;SDS011;59686;51.716;7.016;2023-05-31T00:03:36;2.40;;;2.20;;
71836;SDS011;59686;51.716;7.016;2023-05-31T00:06:06;2.22;;;2.03;;
71836;SDS011;59686;51.716;7.016;2023-05-31T00:08:32;2.17;;;2.00;;
71836;SDS011;59686;51.716;7.016;2023-05-31T00:11:05;3.10;;;2.00;;
71836;SDS011;59686;51.716;7.016;2023-05-31T00:13:32;2.33;;;2.08;;
71836;SDS011;59686;51.716;7.016;2023-05-31T00:15:58;2.10;;;1.90;;
71836;SDS011;59686;51.716;7.016;2023-05-31T00:18:24;2.13;;;2.03;;
71836;SDS011;59686;51.716;7.016;2023-05-31T00:20:50;2.38;;;2.17;;
71836;SDS011;59686;51.716;7.016;2023-05-31T00:23:15;2.20;;;2.00;;
71836;SDS011;59686;51.716;7.016;2023-05-31T00:25:41;2.20;;;1.98;;
71836;SDS011;59686;51.716;7.016;2023-05-31T00:28:07;2.53;;;2.13;;
71836;SDS011;59686;51.716;7.016;2023-05-31T00:30:33;2.20;;;2.00;;
71836;SDS011;59686;51.716;7.016;2023-05-31T00:32:58;2.30;;;2.00;;
71836;SDS011;59686;51.716;7.016;2023-05-31T00:35:24;2.25;;;2.05;;
71836;SDS011;59686;51.716;7.016;2023-05-31T00:37:50;2.22;;;2.08;;
71836;SDS011;59686;51.716;7.016;2023-05-31T00:40:15;2.38;;;2.10;;
71836;SDS011;59686;51.716;7.016;2023-05-31T00:42:41;2.20;;;2.10;;
71836;SDS011;59686;51.716;7.016;2023-05-31T00:45:07;2.00;;;1.90;;
71836;SDS011;59686;51.716;7.016;2023-05-31T00:47:33;2.97;;;2.25;;
71836;SDS011;59686;51.716;7.016;2023-05-31T00:50:00;2.40;;;2.20;;
71836;SDS011;59686;51.716;7.016;2023-05-31T00:52:25;1.90;;;1.80;;
71836;SDS011;59686;51.716;7.016;2023-05-31T00:54:55;2.40;;;2.20;;
71836;SDS011;59686;51.716;7.016;2023-05-31T00:57:21;2.38;;;2.03;;
71836;SDS011;59686;51.716;7.016;2023-05-31T00:59:47;2.30;;;2.10;;
71836;SDS011;59686;51.716;7.016;2023-05-31T01:02:13;2.33;;;2.10;;
71836;SDS011;59686;51.716;7.016;2023-05-31T01:04:49;2.25;;;2.05;;
71836;SDS011;59686;51.716;7.016;2023-05-31T01:07:15;2.10;;;2.00;;
71836;SDS011;59686;51.716;7.016;2023-05-31T01:09:41;2.20;;;2.00;;
71836;SDS011;59686;51.716;7.016;2023-05-31T01:12:29;2.17;;;1.98;;
71836;SDS011;59686;51.716;7.016;2023-05-31T01:15:26;2.63;;;2.08;;
71836;SDS011;59686;51.716;7.016;2023-05-31T01:18:08;2.10;;;1.90;;
71836;SDS011;59686;51.716;7.016;2023-05-31T01:20:44;2.00;;;1.90;;
71836;SDS011;59686;51.716;7.016;2023-05-31T01:29:16;2.30;;;1.98;;
71836;SDS011;59686;51.716;7.016;2023-05-31T01:31:43;2.17;;;1.90;;
71836;SDS011;59686;51.716;7.016;2023-05-31T01:34:11;2.83;;;2.25;;
71836;SDS011;59686;51.716;7.016;2023-05-31T01:36:37;2.35;;;2.10;;
71836;SDS011;59686;51.716;7.016;2023-05-31T01:39:03;2.50;;;2.10;;
71836;SDS011;59686;51.716;7.016;2023-05-31T01:41:35;2.38;;;2.10;;
71836;SDS011;59686;51.716;7.016;2023-05-31T01:44:05;2.33;;;2.13;;
71836;SDS011;59686;51.716;7.016;2023-05-31T01:46:32;2.42;;;2.20;;
71836;SDS011;59686;51.716;7.016;2023-05-31T01:48:58;2.30;;;2.10;;
71836;SDS011;59686;51.716;7.016;2023-05-31T01:51:25;2.40;;;2.15;;
71836;SDS011;59686;51.716;7.016;2023-05-31T01:53:52;2.35;;;2.15;;
71836;SDS011;59686;51.716;7.016;2023-05-31T01:56:19;2.55;;;1.98;;
71836;SDS011;59686;51.716;7.016;2023-05-31T01:58:46;3.28;;;2.17;;
71836;SDS011;59686;51.716;7.016;2023-05-31T02:01:15;1.92;;;1.73;;
71836;SDS011;59686;51.716;7.016;2023-05-31T02:03:42;2.63;;;2.00;;
71836;SDS011;59686;51.716;7.016;2023-05-31T02:06:08;2.30;;;2.15;;
71836;SDS011;59686;51.716;7.016;2023-05-31T02:08:38;2.20;;;1.80;;
71836;SDS011;59686;51.716;7.016;2023-05-31T02:11:05;2.20;;;2.00;;
71836;SDS011;59686;51.716;7.016;2023-05-31T02:13:31;2.20;;;2.00;;
71836;SDS011;59686;51.716;7.016;2023-05-31T02:15:57;2.97;;;2.13;;
71836;SDS011;59686;51.716;7.016;2023-05-31T02:18:23;2.10;;;1.90;;
71836;SDS011;59686;51.716;7.016;2023-05-31T02:20:51;2.35;;;2.15;;
71836;SDS011;59686;51.716;7.016;2023-05-31T02:23:18;2.25;;;2.05;;
71836;SDS011;59686;51.716;7.016;2023-05-31T02:25:45;2.88;;;2.30;;
71836;SDS011;59686;51.716;7.016;2023-05-31T02:28:11;2.30;;;2.10;;
71836;SDS011;59686;51.716;7.016;2023-05-31T02:30:37;2.40;;;2.20;;
71836;SDS011;59686;51.716;7.016;2023-05-31T02:33:11;2.33;;;2.13;;
71836;SDS011;59686;51.716;7.016;2023-05-31T02:35:37;2.58;;;2.20;;
71836;SDS011;59686;51.716;7.016;2023-05-31T02:38:02;2.70;;;2.35;;
71836;SDS011;59686;51.716;7.016;2023-05-31T02:40:28;2.28;;;2.05;;
71836;SDS011;59686;51.716;7.016;2023-05-31T02:42:53;2.53;;;2.33;;
71836;SDS011;59686;51.716;7.016;2023-05-31T02:45:19;2.30;;;2.10;;
71836;SDS011;59686;51.716;7.016;2023-05-31T02:47:45;2.42;;;2.20;;
71836;SDS011;59686;51.716;7.016;2023-05-31T02:50:14;2.75;;;2.20;;
71836;SDS011;59686;51.716;7.016;2023-05-31T02:52:39;2.60;;;2.40;;
71836;SDS011;59686;51.716;7.016;2023-05-31T02:55:05;2.60;;;2.40;;
71836;SDS011;59686;51.716;7.016;2023-05-31T02:57:31;2.80;;;2.33;;
71836;SDS011;59686;51.716;7.016;2023-05-31T02:59:57;3.83;;;2.40;;
71836;SDS011;59686;51.716;7.016;2023-05-31T03:02:33;3.92;;;2.53;;
71836;SDS011;59686;51.716;7.016;2023-05-31T03:04:59;2.97;;;2.22;;
71836;SDS011;59686;51.716;7.016;2023-05-31T03:07:27;3.03;;;2.38;;
71836;SDS011;59686;51.716;7.016;2023-05-31T03:09:53;3.03;;;2.40;;
71836;SDS011;59686;51.716;7.016;2023-05-31T03:12:18;2.97;;;2.40;;
71836;SDS011;59686;51.716;7.016;2023-05-31T03:14:44;2.65;;;2.42;;
71836;SDS011;59686;51.716;7.016;2023-05-31T03:17:10;3.47;;;2.60;;
71836;SDS011;59686;51.716;7.016;2023-05-31T03:19:35;3.22;;;2.40;;
71836;SDS011;59686;51.716;7.016;2023-05-31T03:22:05;3.25;;;2.45;;
71836;SDS011;59686;51.716;7.016;2023-05-31T03:24:31;2.72;;;2.45;;
71836;SDS011;59686;51.716;7.016;2023-05-31T03:26:56;3.47;;;2.50;;
71836;SDS011;59686;51.716;7.016;2023-05-31T03:29:22;3.33;;;2.90;;
71836;SDS011;59686;51.716;7.016;2023-05-31T03:31:48;2.72;;;2.53;;
71836;SDS011;59686;51.716;7.016;2023-05-31T03:34:15;4.07;;;2.53;;
71836;SDS011;59686;51.716;7.016;2023-05-31T03:36:40;4.68;;;2.60;;
71836;SDS011;59686;51.716;7.016;2023-05-31T03:39:06;3.13;;;2.75;;
71836;SDS011;59686;51.716;7.016;2023-05-31T03:41:32;2.75;;;2.55;;
71836;SDS011;59686;51.716;7.016;2023-05-31T03:43:58;2.85;;;2.60;;
71836;SDS011;59686;51.716;7.016;2023-05-31T03:46:24;3.20;;;2.90;;
71836;SDS011;59686;51.716;7.016;2023-05-31T03:48:50;2.75;;;2.50;;
71836;SDS011;59686;51.716;7.016;2023-05-31T03:51:15;3.30;;;2.70;;
71836;SDS011;59686;51.716;7.016;2023-05-31T03:53:41;4.32;;;2.60;;
71836;SDS011;59686;51.716;7.016;2023-05-31T03:56:07;3.83;;;2.88;;
71836;SDS011;59686;51.716;7.016;2023-05-31T03:58:33;2.92;;;2.58;;
71836;SDS011;59686;51.716;7.016;2023-05-31T04:00:58;3.25;;;2.65;;
71836;SDS011;59686;51.716;7.016;2023-05-31T04:03:25;3.45;;;2.72;;
71836;SDS011;59686;51.716;7.016;2023-05-31T04:05:51;4.28;;;2.92;;
71836;SDS011;59686;51.716;7.016;2023-05-31T04:08:17;3.97;;;3.05;;
71836;SDS011;59686;51.716;7.016;2023-05-31T04:10:42;4.05;;;2.90;;
71836;SDS011;59686;51.716;7.016;2023-05-31T04:13:08;4.22;;;2.70;;
71836;SDS011;59686;51.716;7.016;2023-05-31T04:15:34;2.70;;;2.50;;
71836;SDS011;59686;51.716;7.016;2023-05-31T04:18:11;6.03;;;3.13;;
71836;SDS011;59686;51.716;7.016;2023-05-31T04:20:37;3.10;;;2.75;;
71836;SDS011;59686;51.716;7.016;2023-05-31T04:23:02;3.55;;;2.88;;
71836;SDS011;59686;51.716;7.016;2023-05-31T04:25:28;3.08;;;2.53;;
71836;SDS011;59686;51.716;7.016;2023-05-31T04:27:54;3.13;;;2.80;;
71836;SDS011;59686;51.716;7.016;2023-05-31T04:30:20;3.38;;;3.08;;
71836;SDS011;59686;51.716;7.016;2023-05-31T04:32:46;3.90;;;2.88;;
71836;SDS011;59686;51.716;7.016;2023-05-31T04:35:17;5.18;;;3.20;;
71836;SDS011;59686;51.716;7.016;2023-05-31T04:37:43;3.42;;;2.90;;
71836;SDS011;59686;51.716;7.016;2023-05-31T04:40:09;3.95;;;2.97;;
71836;SDS011;59686;51.716;7.016;2023-05-31T04:42:36;5.88;;;2.90;;
71836;SDS011;59686;51.716;7.016;2023-05-31T04:45:03;4.18;;;2.90;;
71836;SDS011;59686;51.716;7.016;2023-05-31T04:47:33;3.92;;;3.28;;
71836;SDS011;59686;51.716;7.016;2023-05-31T04:50:02;3.67;;;2.88;;
71836;SDS011;59686;51.716;7.016;2023-05-31T04:52:29;5.20;;;3.40;;
71836;SDS011;59686;51.716;7.016;2023-05-31T04:54:59;3.58;;;2.90;;
71836;SDS011;59686;51.716;7.016;2023-05-31T04:57:27;3.40;;;3.03;;
71836;SDS011;59686;51.716;7.016;2023-05-31T04:59:53;4.35;;;3.00;;
71836;SDS011;59686;51.716;7.016;2023-05-31T05:02:22;4.40;;;3.38;;
71836;SDS011;59686;51.716;7.016;2023-05-31T05:04:48;3.70;;;3.03;;
71836;SDS011;59686;51.716;7.016;2023-05-31T05:07:14;5.32;;;3.10;;
71836;SDS011;59686;51.716;7.016;2023-05-31T05:09:41;3.80;;;2.90;;
71836;SDS011;59686;51.716;7.016;2023-05-31T05:12:07;4.80;;;3.13;;
71836;SDS011;59686;51.716;7.016;2023-05-31T05:14:34;4.25;;;2.90;;
71836;SDS011;59686;51.716;7.016;2023-05-31T05:17:00;7.68;;;5.00;;
71836;SDS011;59686;51.716;7.016;2023-05-31T05:19:25;11.02;;;6.57;;
71836;SDS011;59686;51.716;7.016;2023-05-31T05:21:51;9.98;;;6.93;;
71836;SDS011;59686;51.716;7.016;2023-05-31T05:24:17;8.20;;;6.57;;
71836;SDS011;59686;51.716;7.016;2023-05-31T05:26:43;9.00;;;6.22;;
71836;SDS011;59686;51.716;7.016;2023-05-31T05:29:09;10.52;;;6.22;;
71836;SDS011;59686;51.716;7.016;2023-05-31T05:31:35;10.60;;;6.57;;
71836;SDS011;59686;51.716;7.016;2023-05-31T05:34:01;11.85;;;6.32;;
71836;SDS011;59686;51.716;7.016;2023-05-31T05:36:27;8.90;;;5.68;;
71836;SDS011;59686;51.716;7.016;2023-05-31T05:38:52;10.30;;;5.82;;
71836;SDS011;59686;51.716;7.016;2023-05-31T05:41:18;8.18;;;5.05;;
71836;SDS011;59686;51.716;7.016;2023-05-31T05:43:44;10.25;;;5.00;;
71836;SDS011;59686;51.716;7.016;2023-05-31T05:46:09;7.85;;;4.65;;
71836;SDS011;59686;51.716;7.016;2023-05-31T05:48:35;7.80;;;4.38;;
71836;SDS011;59686;51.716;7.016;2023-05-31T05:51:00;6.05;;;3.65;;
71836;SDS011;59686;51.716;7.016;2023-05-31T05:53:27;7.85;;;4.68;;
71836;SDS011;59686;51.716;7.016;2023-05-31T05:55:53;7.88;;;4.22;;
71836;SDS011;59686;51.716;7.016;2023-05-31T05:58:24;7.68;;;3.97;;
71836;SDS011;59686;51.716;7.016;2023-05-31T06:00:52;6.35;;;3.78;;
71836;SDS011;59686;51.716;7.016;2023-05-31T06:03:21;7.07;;;3.65;;
71836;SDS011;59686;51.716;7.016;2023-05-31T06:05:48;5.95;;;3.85;;
71836;SDS011;59686;51.716;7.016;2023-05-31T06:08:14;6.65;;;3.88;;
71836;SDS011;59686;51.716;7.016;2023-05-31T06:10:43;4.25;;;3.42;;
71836;SDS011;59686;51.716;7.016;2023-05-31T06:13:09;5.22;;;3.55;;
71836;SDS011;59686;51.716;7.016;2023-05-31T06:15:35;4.28;;;3.28;;
71836;SDS011;59686;51.716;7.016;2023-05-31T06:18:01;3.92;;;3.50;;
71836;SDS011;59686;51.716;7.016;2023-05-31T06:20:26;4.20;;;3.33;;
71836;SDS011;59686;51.716;7.016;2023-05-31T06:22:52;5.07;;;3.45;;
71836;SDS011;59686;51.716;7.016;2023-05-31T06:25:19;5.55;;;3.53;;
71836;SDS011;59686;51.716;7.016;2023-05-31T06:27:45;4.00;;;3.15;;
71836;SDS011;59686;51.716;7.016;2023-05-31T06:30:11;6.28;;;3.55;;
71836;SDS011;59686;51.716;7.016;2023-05-31T06:32:38;5.88;;;3.33;;
71836;SDS011;59686;51.716;7.016;2023-05-31T06:35:04;4.15;;;3.22;;
71836;SDS011;59686;51.716;7.016;2023-05-31T06:37:33;6.97;;;3.60;;
71836;SDS011;59686;51.716;7.016;2023-05-31T06:40:02;4.57;;;3.30;;
71836;SDS011;59686;51.716;7.016;2023-05-31T06:42:28;6.32;;;3.20;;
71836;SDS011;59686;51.716;7.016;2023-05-31T06:44:53;4.85;;;2.83;;
71836;SDS011;59686;51.716;7.016;2023-05-31T06:47:19;5.38;;;3.53;;
71836;SDS011;59686;51.716;7.016;2023-05-31T06:49:45;4.60;;;3.47;;
71836;SDS011;59686;51.716;7.016;2023-05-31T06:52:10;4.00;;;3.08;;
71836;SDS011;59686;51.716;7.016;2023-05-31T06:54:37;4.47;;;3.58;;
71836;SDS011;59686;51.716;7.016;2023-05-31T06:57:03;4.35;;;3.40;;
71836;SDS011;59686;51.716;7.016;2023-05-31T06:59:30;3.47;;;2.67;;
71836;SDS011;59686;51.716;7.016;2023-05-31T07:01:57;4.38;;;3.40;;
71836;SDS011;59686;51.716;7.016;2023-05-31T07:04:22;3.97;;;3.05;;
71836;SDS011;59686;51.716;7.016;2023-05-31T07:06:52;3.78;;;3.00;;
71836;SDS011;59686;51.716;7.016;2023-05-31T07:09:21;5.38;;;3.22;;
71836;SDS011;59686;51.716;7.016;2023-05-31T07:11:46;4.28;;;3.40;;
71836;SDS011;59686;51.716;7.016;2023-05-31T07:14:15;5.03;;;3.30;;
71836;SDS011;59686;51.716;7.016;2023-05-31T07:16:41;5.50;;;3.58;;
71836;SDS011;59686;51.716;7.016;2023-05-31T07:19:06;5.07;;;3.40;;
71836;SDS011;59686;51.716;7.016;2023-05-31T07:21:32;6.10;;;3.38;;
71836;SDS011;59686;51.716;7.016;2023-05-31T07:23:59;6.90;;;3.22;;
71836;SDS011;59686;51.716;7.016;2023-05-31T07:26:24;5.57;;;3.33;;
71836;SDS011;59686;51.716;7.016;2023-05-31T07:28:50;5.05;;;3.30;;
71836;SDS011;59686;51.716;7.016;2023-05-31T07:31:19;7.10;;;3.28;;
71836;SDS011;59686;51.716;7.016;2023-05-31T07:33:45;6.97;;;3.58;;
71836;SDS011;59686;51.716;7.016;2023-05-31T07:36:11;3.95;;;3.42;;
71836;SDS011;59686;51.716;7.016;2023-05-31T07:38:37;4.57;;;3.50;;
71836;SDS011;59686;51.716;7.016;2023-05-31T07:41:03;4.28;;;3.35;;
71836;SDS011;59686;51.716;7.016;2023-05-31T07:43:28;5.45;;;3.20;;
71836;SDS011;59686;51.716;7.016;2023-05-31T07:45:54;6.97;;;3.20;;
71836;SDS011;59686;51.716;7.016;2023-05-31T07:48:22;4.68;;;3.20;;
71836;SDS011;59686;51.716;7.016;2023-05-31T07:50:48;5.30;;;3.50;;
71836;SDS011;59686;51.716;7.016;2023-05-31T07:53:14;4.60;;;3.22;;
71836;SDS011;59686;51.716;7.016;2023-05-31T07:55:40;5.35;;;3.22;;
71836;SDS011;59686;51.716;7.016;2023-05-31T07:58:06;5.47;;;3.38;;
71836;SDS011;59686;51.716;7.016;2023-05-31T08:00:32;4.85;;;3.20;;
71836;SDS011;59686;51.716;7.016;2023-05-31T08:02:58;8.48;;;3.45;;
71836;SDS011;59686;51.716;7.016;2023-05-31T08:05:23;4.95;;;3.30;;
71836;SDS011;59686;51.716;7.016;2023-05-31T08:07:49;3.38;;;2.90;;
71836;SDS011;59686;51.716;7.016;2023-05-31T08:10:15;5.70;;;3.22;;
71836;SDS011;59686;51.716;7.016;2023-05-31T08:12:41;5.13;;;3.20;;
71836;SDS011;59686;51.716;7.016;2023-05-31T08:15:07;4.70;;;3.00;;
71836;SDS011;59686;51.716;7.016;2023-05-31T08:17:33;4.82;;;3.03;;
71836;SDS011;59686;51.716;7.016;2023-05-31T08:19:59;7.70;;;3.53;;
71836;SDS011;59686;51.716;7.016;2023-05-31T08:22:25;4.22;;;3.00;;
71836;SDS011;59686;51.716;7.016;2023-05-31T08:24:51;4.40;;;3.10;;
71836;SDS011;59686;51.716;7.016;2023-05-31T08:27:16;4.97;;;3.10;;
71836;SDS011;59686;51.716;7.016;2023-05-31T08:29:42;5.78;;;3.38;;
71836;SDS011;59686;51.716;7.016;2023-05-31T08:32:08;5.40;;;3.20;;
71836;SDS011;59686;51.716;7.016;2023-05-31T08:34:34;5.40;;;3.05;;
71836;SDS011;59686;51.716;7.016;2023-05-31T08:36:59;4.60;;;3.15;;
71836;SDS011;59686;51.716;7.016;2023-05-31T08:39:25;6.47;;;3.33;;
71836;SDS011;59686;51.716;7.016;2023-05-31T08:41:59;6.07;;;2.95;;
71836;SDS011;59686;51.716;7.016;2023-05-31T08:44:28;3.63;;;2.80;;
71836;SDS011;59686;51.716;7.016;2023-05-31T08:49:29;6.53;;;2.78;;
71836;SDS011;59686;51.716;7.016;2023-05-31T08:51:58;5.63;;;3.38;;
71836;SDS011;59686;51.716;7.016;2023-05-31T08:54:24;4.78;;;3.00;;
71836;SDS011;59686;51.716;7.016;2023-05-31T08:56:50;4.25;;;2.75;;
71836;SDS011;59686;51.716;7.016;2023-05-31T08:59:16;6.25;;;3.30;;
71836;SDS011;59686;51.716;7.016;2023-05-31T09:01:43;4.47;;;3.00;;
71836;SDS011;59686;51.716;7.016;2023-05-31T09:04:16;4.63;;;2.92;;
71836;SDS011;59686;51.716;7.016;2023-05-31T09:06:43;6.03;;;3.05;;
71836;SDS011;59686;51.716;7.016;2023-05-31T09:09:08;4.72;;;2.78;;
71836;SDS011;59686;51.716;7.016;2023-05-31T09:11:35;7.88;;;3.47;;
71836;SDS011;59686;51.716;7.016;2023-05-31T09:14:06;3.85;;;2.60;;
71836;SDS011;59686;51.716;7.016;2023-05-31T09:16:33;6.00;;;2.88;;
71836;SDS011;59686;51.716;7.016;2023-05-31T09:19:01;4.95;;;3.00;;
71836;SDS011;59686;51.716;7.016;2023-05-31T09:24:20;4.65;;;2.63;;
71836;SDS011;59686;51.716;7.016;2023-05-31T09:26:49;5.93;;;2.80;;
71836;SDS011;59686;51.716;7.016;2023-05-31T09:29:16;4.35;;;2.70;;
71836;SDS011;59686;51.716;7.016;2023-05-31T09:31:43;5.25;;;2.90;;
71836;SDS011;59686;51.716;7.016;2023-05-31T09:34:26;5.32;;;2.80;;
71836;SDS011;59686;51.716;7.016;2023-05-31T09:37:00;5.05;;;2.83;;
71836;SDS011;59686;51.716;7.016;2023-05-31T09:39:26;5.03;;;2.92;;
71836;SDS011;59686;51.716;7.016;2023-05-31T09:41:52;6.32;;;3.08;;
71836;SDS011;59686;51.716;7.016;2023-05-31T09:44:24;5.50;;;2.80;;
71836;SDS011;59686;51.716;7.016;2023-05-31T09:46:52;4.03;;;3.00;;
71836;SDS011;59686;51.716;7.016;2023-05-31T09:49:17;5.20;;;2.80;;
71836;SDS011;59686;51.716;7.016;2023-05-31T09:51:54;5.07;;;3.10;;
71836;SDS011;59686;51.716;7.016;2023-05-31T09:54:20;4.68;;;2.90;;
71836;SDS011;59686;51.716;7.016;2023-05-31T09:56:52;3.63;;;2.70;;
71836;SDS011;59686;51.716;7.016;2023-05-31T09:59:17;4.45;;;2.67;;
71836;SDS011;59686;51.716;7.016;2023-05-31T10:01:43;3.95;;;2.70;;
71836;SDS011;59686;51.716;7.016;2023-05-31T10:04:10;4.15;;;2.70;;
71836;SDS011;59686;51.716;7.016;2023-05-31T10:06:37;3.05;;;2.42;;
71836;SDS011;59686;51.716;7.016;2023-05-31T10:09:06;4.03;;;2.50;;
71836;SDS011;59686;51.716;7.016;2023-05-31T10:11:35;4.90;;;2.58;;
71836;SDS011;59686;51.716;7.016;2023-05-31T10:14:21;5.93;;;2.80;;
71836;SDS011;59686;51.716;7.016;2023-05-31T10:17:01;3.65;;;2.50;;
71836;SDS011;59686;51.716;7.016;2023-05-31T10:19:31;3.60;;;2.40;;
71836;SDS011;59686;51.716;7.016;2023-05-31T10:22:03;4.20;;;2.80;;
71836;SDS011;59686;51.716;7.016;2023-05-31T10:24:51;4.57;;;2.67;;
71836;SDS011;59686;51.716;7.016;2023-05-31T10:27:34;3.55;;;2.38;;
71836;SDS011;59686;51.716;7.016;2023-05-31T10:30:07;4.55;;;2.70;;
71836;SDS011;59686;51.716;7.016;2023-05-31T10:32:45;4.40;;;2.65;;
71836;SDS011;59686;51.716;7.016;2023-05-31T10:35:18;4.45;;;2.63;;
71836;SDS011;59686;51.716;7.016;2023-05-31T10:37:50;5.25;;;2.70;;
71836;SDS011;59686;51.716;7.016;2023-05-31T10:43:01;4.20;;;2.30;;
71836;SDS011;59686;51.716;7.016;2023-05-31T10:45:45;4.72;;;2.58;;
71836;SDS011;59686;51.716;7.016;2023-05-31T10:51:06;6.30;;;2.58;;
71836;SDS011;59686;51.716;7.016;2023-05-31T10:53:35;4.18;;;2.38;;
71836;SDS011;59686;51.716;7.016;2023-05-31T10:56:02;2.97;;;2.20;;
71836;SDS011;59686;51.716;7.016;2023-05-31T10:58:47;3.28;;;2.40;;
71836;SDS011;59686;51.716;7.016;2023-05-31T11:01:17;4.55;;;2.75;;
71836;SDS011;59686;51.716;7.016;2023-05-31T11:03:50;3.67;;;2.42;;
71836;SDS011;59686;51.716;7.016;2023-05-31T11:06:28;4.90;;;2.60;;
71836;SDS011;59686;51.716;7.016;2023-05-31T11:08:56;4.05;;;2.30;;
71836;SDS011;59686;51.716;7.016;2023-05-31T11:11:25;4.00;;;2.33;;
71836;SDS011;59686;51.716;7.016;2023-05-31T11:14:03;4.55;;;2.35;;
71836;SDS011;59686;51.716;7.016;2023-05-31T11:16:32;3.67;;;2.40;;
71836;SDS011;59686;51.716;7.016;2023-05-31T11:19:14;4.35;;;2.40;;
71836;SDS011;59686;51.716;7.016;2023-05-31T11:21:54;6.10;;;2.47;;
71836;SDS011;59686;51.716;7.016;2023-05-31T11:27:00;3.03;;;2.50;;
71836;SDS011;59686;51.716;7.016;2023-05-31T11:30:12;4.53;;;2.47;;
71836;SDS011;59686;51.716;7.016;2023-05-31T11:32:15;4.10;;;2.55;;
71836;SDS011;59686;51.716;7.016;2023-05-31T11:35:03;4.15;;;2.08;;
71836;SDS011;59686;51.716;7.016;2023-05-31T11:37:39;4.03;;;2.50;;
71836;SDS011;59686;51.716;7.016;2023-05-31T11:40:09;3.38;;;2.22;;
71836;SDS011;59686;51.716;7.016;2023-05-31T11:42:41;3.58;;;2.40;;
71836;SDS011;59686;51.716;7.016;2023-05-31T11:45:12;9.00;;;2.90;;
71836;SDS011;59686;51.716;7.016;2023-05-31T11:50:55;6.18;;;2.67;;
71836;SDS011;59686;51.716;7.016;2023-05-31T11:53:21;7.95;;;3.20;;
71836;SDS011;59686;51.716;7.016;2023-05-31T11:55:47;8.00;;;3.30;;
71836;SDS011;59686;51.716;7.016;2023-05-31T11:58:13;6.95;;;2.97;;
71836;SDS011;59686;51.716;7.016;2023-05-31T12:00:44;6.35;;;3.15;;
71836;SDS011;59686;51.716;7.016;2023-05-31T12:03:13;7.25;;;2.90;;
71836;SDS011;59686;51.716;7.016;2023-05-31T12:05:40;7.50;;;2.85;;
71836;SDS011;59686;51.716;7.016;2023-05-31T12:08:16;10.05;;;3.17;;
71836;SDS011;59686;51.716;7.016;2023-05-31T12:10:44;4.65;;;2.78;;
71836;SDS011;59686;51.716;7.016;2023-05-31T12:13:10;5.93;;;2.92;;
71836;SDS011;59686;51.716;7.016;2023-05-31T12:15:37;8.77;;;2.92;;
71836;SDS011;59686;51.716;7.016;2023-05-31T12:18:03;4.70;;;2.58;;
71836;SDS011;59686;51.716;7.016;2023-05-31T12:20:30;6.22;;;2.83;;
71836;SDS011;59686;51.716;7.016;2023-05-31T12:23:14;5.78;;;3.35;;
71836;SDS011;59686;51.716;7.016;2023-05-31T12:25:47;5.50;;;2.53;;
71836;SDS011;59686;51.716;7.016;2023-05-31T12:28:17;3.97;;;2.60;;
71836;SDS011;59686;51.716;7.016;2023-05-31T12:30:45;3.90;;;2.78;;
71836;SDS011;59686;51.716;7.016;2023-05-31T12:33:12;7.20;;;2.78;;
71836;SDS011;59686;51.716;7.016;2023-05-31T12:35:41;6.35;;;2.60;;
71836;SDS011;59686;51.716;7.016;2023-05-31T12:38:08;5.65;;;2.63;;
71836;SDS011;59686;51.716;7.016;2023-05-31T12:40:37;4.63;;;2.70;;
71836;SDS011;59686;51.716;7.016;2023-05-31T12:43:05;4.05;;;2.20;;
71836;SDS011;59686;51.716;7.016;2023-05-31T12:45:31;4.30;;;2.60;;
71836;SDS011;59686;51.716;7.016;2023-05-31T12:47:57;3.40;;;2.50;;
71836;SDS011;59686;51.716;7.016;2023-05-31T12:50:24;4.38;;;2.67;;
71836;SDS011;59686;51.716;7.016;2023-05-31T12:52:56;4.18;;;2.67;;
71836;SDS011;59686;51.716;7.016;2023-05-31T12:55:23;4.63;;;2.72;;
71836;SDS011;59686;51.716;7.016;2023-05-31T12:57:48;3.92;;;2.55;;
71836;SDS011;59686;51.716;7.016;2023-05-31T13:02:43;4.32;;;2.80;;
71836;SDS011;59686;51.716;7.016;2023-05-31T13:05:09;3.97;;;2.17;;
71836;SDS011;59686;51.716;7.016;2023-05-31T13:07:35;9.52;;;2.72;;
71836;SDS011;59686;51.716;7.016;2023-05-31T13:10:04;6.05;;;2.60;;
71836;SDS011;59686;51.716;7.016;2023-05-31T13:12:32;5.00;;;2.65;;
71836;SDS011;59686;51.716;7.016;2023-05-31T13:14:58;4.47;;;2.47;;
71836;SDS011;59686;51.716;7.016;2023-05-31T13:17:24;4.65;;;2.20;;
71836;SDS011;59686;51.716;7.016;2023-05-31T13:19:49;2.50;;;2.20;;
71836;SDS011;59686;51.716;7.016;2023-05-31T13:22:15;5.85;;;2.47;;
71836;SDS011;59686;51.716;7.016;2023-05-31T13:24:41;4.90;;;2.88;;
71836;SDS011;59686;51.716;7.016;2023-05-31T13:27:07;5.88;;;2.63;;
71836;SDS011;59686;51.716;7.016;2023-05-31T13:29:34;3.60;;;2.55;;
71836;SDS011;59686;51.716;7.016;2023-05-31T13:32:06;5.38;;;2.88;;
71836;SDS011;59686;51.716;7.016;2023-05-31T13:34:32;3.90;;;2.40;;
71836;SDS011;59686;51.716;7.016;2023-05-31T13:36:58;5.10;;;2.40;;
71836;SDS011;59686;51.716;7.016;2023-05-31T13:39:23;5.60;;;2.63;;
71836;SDS011;59686;51.716;7.016;2023-05-31T13:41:49;4.70;;;2.63;;
71836;SDS011;59686;51.716;7.016;2023-05-31T13:44:15;3.75;;;2.53;;
71836;SDS011;59686;51.716;7.016;2023-05-31T13:46:41;3.72;;;2.45;;
71836;SDS011;59686;51.716;7.016;2023-05-31T13:49:07;3.25;;;2.38;;
71836;SDS011;59686;51.716;7.016;2023-05-31T13:51:33;3.60;;;2.30;;
71836;SDS011;59686;51.716;7.016;2023-05-31T13:53:59;3.47;;;2.55;;
71836;SDS011;59686;51.716;7.016;2023-05-31T13:56:25;4.25;;;2.58;;
71836;SDS011;59686;51.716;7.016;2023-05-31T13:58:51;6.45;;;2.63;;
71836;SDS011;59686;51.716;7.016;2023-05-31T14:01:17;4.50;;;2.35;;
71836;SDS011;59686;51.716;7.016;2023-05-31T14:03:42;4.40;;;2.40;;
71836;SDS011;59686;51.716;7.016;2023-05-31T14:06:08;4.45;;;2.30;;
71836;SDS011;59686;51.716;7.016;2023-05-31T14:08:34;3.75;;;2.28;;
71836;SDS011;59686;51.716;7.016;2023-05-31T14:11:00;4.28;;;2.60;;
71836;SDS011;59686;51.716;7.016;2023-05-31T14:13:26;5.28;;;2.50;;
71836;SDS011;59686;51.716;7.016;2023-05-31T14:15:52;8.35;;;2.83;;
71836;SDS011;59686;51.716;7.016;2023-05-31T14:18:17;5.22;;;2.63;;
71836;SDS011;59686;51.716;7.016;2023-05-31T14:20:44;4.45;;;2.47;;
71836;SDS011;59686;51.716;7.016;2023-05-31T14:23:12;4.30;;;2.60;;
71836;SDS011;59686;51.716;7.016;2023-05-31T14:25:37;4.25;;;2.50;;
71836;SDS011;59686;51.716;7.016;2023-05-31T14:28:05;4.13;;;2.33;;
71836;SDS011;59686;51.716;7.016;2023-05-31T14:30:31;4.68;;;2.53;;
71836;SDS011;59686;51.716;7.016;2023-05-31T14:32:57;3.92;;;2.30;;
71836;SDS011;59686;51.716;7.016;2023-05-31T14:35:22;4.72;;;2.40;;
71836;SDS011;59686;51.716;7.016;2023-05-31T14:37:48;3.60;;;2.08;;
71836;SDS011;59686;51.716;7.016;2023-05-31T14:40:14;2.95;;;2.33;;
71836;SDS011;59686;51.716;7.016;2023-05-31T14:42:40;3.60;;;2.28;;
71836;SDS011;59686;51.716;7.016;2023-05-31T14:45:05;4.00;;;2.42;;
71836;SDS011;59686;51.716;7.016;2023-05-31T14:47:32;4.75;;;2.20;;
71836;SDS011;59686;51.716;7.016;2023-05-31T14:49:58;3.33;;;2.60;;
71836;SDS011;59686;51.716;7.016;2023-05-31T14:52:24;5.10;;;2.38;;
71836;SDS011;59686;51.716;7.016;2023-05-31T14:54:50;3.33;;;2.28;;
71836;SDS011;59686;51.716;7.016;2023-05-31T14:57:15;2.75;;;2.08;;
71836;SDS011;59686;51.716;7.016;2023-05-31T14:59:41;5.28;;;2.40;;
71836;SDS011;59686;51.716;7.016;2023-05-31T15:02:07;5.00;;;2.22;;
71836;SDS011;59686;51.716;7.016;2023-05-31T15:04:34;7.45;;;2.50;;
71836;SDS011;59686;51.716;7.016;2023-05-31T15:06:59;3.28;;;2.20;;
71836;SDS011;59686;51.716;7.016;2023-05-31T15:09:25;3.42;;;2.25;;
71836;SDS011;59686;51.716;7.016;2023-05-31T15:11:51;3.83;;;2.28;;
71836;SDS011;59686;51.716;7.016;2023-05-31T15:14:16;5.07;;;2.08;;
71836;SDS011;59686;51.716;7.016;2023-05-31T15:16:42;3.63;;;2.30;;